sensor_id;sensor_type;location;lat;lon;timestamp;P1;durP1;ratioP1;P2;durP2;ratioP2
12112;SDS011;6120;52.250;8.478;2023-08-31T00:00:46;11.50;;;7.88;;
12112;SDS011;6120;52.250;8.478;2023-08-31T00:03:13;14.93;;;7.47;;
12112;SDS011;6120;52.250;8.478;2023-08-31T00:05:41;13.48;;;7.82;;
12112;SDS011;6120;52.250;8.478;2023-08-31T00:08:09;17.77;;;8.80;;
12112;SDS011;6120;52.250;8.478;2023-08-31T00:10:37;13.90;;;7.90;;
12112;SDS011;6120;52.250;8.478;2023-08-31T00:13:04;12.45;;;7.95;;
12112;SDS011;6120;52.250;8.478;2023-08-31T00:15:35;13.07;;;7.45;;
12112;SDS011;6120;52.250;8.478;2023-08-31T00:18:03;10.88;;;7.32;;
12112;SDS011;6120;52.250;8.478;2023-08-31T00:20:30;13.48;;;8.20;;
12112;SDS011;6120;52.250;8.478;2023-08-31T00:22:57;11.70;;;7.82;;
12112;SDS011;6120;52.250;8.478;2023-08-31T00:25:24;17.00;;;8.48;;
12112;SDS011;6120;52.250;8.478;2023-08-31T00:27:51;14.57;;;8.90;;
12112;SDS011;6120;52.250;8.478;2023-08-31T00:30:18;11.88;;;7.35;;
12112;SDS011;6120;52.250;8.478;2023-08-31T00:32:45;11.27;;;7.43;;
12112;SDS011;6120;52.250;8.478;2023-08-31T00:35:13;12.80;;;8.65;;
12112;SDS011;6120;52.250;8.478;2023-08-31T00:37:40;12.57;;;8.68;;
12112;SDS011;6120;52.250;8.478;2023-08-31T00:40:07;13.57;;;9.00;;
12112;SDS011;6120;52.250;8.478;2023-08-31T00:42:35;12.57;;;8.23;;
12112;SDS011;6120;52.250;8.478;2023-08-31T00:47:32;11.90;;;7.00;;
12112;SDS011;6120;52.250;8.478;2023-08-31T00:49:59;10.80;;;7.40;;
12112;SDS011;6120;52.250;8.478;2023-08-31T00:52:26;15.13;;;8.48;;
12112;SDS011;6120;52.250;8.478;2023-08-31T00:54:52;11.73;;;7.47;;
12112;SDS011;6120;52.250;8.478;2023-08-31T00:57:20;13.77;;;8.20;;
12112;SDS011;6120;52.250;8.478;2023-08-31T00:59:46;15.55;;;8.70;;
12112;SDS011;6120;52.250;8.478;2023-08-31T01:02:22;14.93;;;8.77;;
12112;SDS011;6120;52.250;8.478;2023-08-31T01:05:20;18.65;;;10.23;;
12112;SDS011;6120;52.250;8.478;2023-08-31T01:07:53;13.82;;;8.73;;
12112;SDS011;6120;52.250;8.478;2023-08-31T01:13:15;15.82;;;8.23;;
12112;SDS011;6120;52.250;8.478;2023-08-31T01:15:45;18.10;;;8.65;;
12112;SDS011;6120;52.250;8.478;2023-08-31T01:18:14;16.73;;;9.50;;
12112;SDS011;6120;52.250;8.478;2023-08-31T01:23:51;15.38;;;9.10;;
12112;SDS011;6120;52.250;8.478;2023-08-31T01:26:20;15.15;;;8.55;;
12112;SDS011;6120;52.250;8.478;2023-08-31T01:28:47;12.85;;;8.25;;
12112;SDS011;6120;52.250;8.478;2023-08-31T01:31:15;12.80;;;9.03;;
12112;SDS011;6120;52.250;8.478;2023-08-31T01:33:42;10.50;;;7.38;;
12112;SDS011;6120;52.250;8.478;2023-08-31T01:36:30;20.42;;;8.43;;
12112;SDS011;6120;52.250;8.478;2023-08-31T01:39:17;13.88;;;8.45;;
12112;SDS011;6120;52.250;8.478;2023-08-31T01:41:48;14.13;;;8.30;;
12112;SDS011;6120;52.250;8.478;2023-08-31T01:44:19;17.98;;;8.43;;
12112;SDS011;6120;52.250;8.478;2023-08-31T01:46:46;14.55;;;8.32;;
12112;SDS011;6120;52.250;8.478;2023-08-31T01:49:12;12.77;;;7.72;;
12112;SDS011;6120;52.250;8.478;2023-08-31T01:51:40;10.95;;;7.63;;
12112;SDS011;6120;52.250;8.478;2023-08-31T01:54:07;12.07;;;7.78;;
12112;SDS011;6120;52.250;8.478;2023-08-31T01:56:33;10.73;;;6.53;;
12112;SDS011;6120;52.250;8.478;2023-08-31T01:59:00;12.60;;;7.38;;
12112;SDS011;6120;52.250;8.478;2023-08-31T02:01:26;11.88;;;7.40;;
12112;SDS011;6120;52.250;8.478;2023-08-31T02:03:53;13.93;;;7.85;;
12112;SDS011;6120;52.250;8.478;2023-08-31T02:06:20;11.05;;;6.95;;
12112;SDS011;6120;52.250;8.478;2023-08-31T02:08:46;11.63;;;7.72;;
12112;SDS011;6120;52.250;8.478;2023-08-31T02:11:13;11.40;;;7.63;;
12112;SDS011;6120;52.250;8.478;2023-08-31T02:13:41;13.98;;;8.13;;
12112;SDS011;6120;52.250;8.478;2023-08-31T02:16:08;12.65;;;7.30;;
12112;SDS011;6120;52.250;8.478;2023-08-31T02:18:35;13.63;;;7.72;;
12112;SDS011;6120;52.250;8.478;2023-08-31T02:21:01;10.98;;;7.13;;
12112;SDS011;6120;52.250;8.478;2023-08-31T02:25:56;14.95;;;7.85;;
12112;SDS011;6120;52.250;8.478;2023-08-31T02:28:23;11.43;;;7.15;;
12112;SDS011;6120;52.250;8.478;2023-08-31T02:30:57;12.25;;;7.15;;
12112;SDS011;6120;52.250;8.478;2023-08-31T02:33:28;10.57;;;7.43;;
12112;SDS011;6120;52.250;8.478;2023-08-31T02:35:55;11.07;;;7.10;;
12112;SDS011;6120;52.250;8.478;2023-08-31T02:38:22;16.00;;;7.65;;
12112;SDS011;6120;52.250;8.478;2023-08-31T02:40:49;13.40;;;7.93;;
12112;SDS011;6120;52.250;8.478;2023-08-31T02:43:16;14.30;;;7.35;;
12112;SDS011;6120;52.250;8.478;2023-08-31T02:45:42;13.38;;;7.40;;
12112;SDS011;6120;52.250;8.478;2023-08-31T02:48:09;13.65;;;6.85;;
12112;SDS011;6120;52.250;8.478;2023-08-31T02:50:37;10.88;;;6.90;;
12112;SDS011;6120;52.250;8.478;2023-08-31T02:53:04;14.18;;;7.28;;
12112;SDS011;6120;52.250;8.478;2023-08-31T02:55:34;12.38;;;6.93;;
12112;SDS011;6120;52.250;8.478;2023-08-31T02:58:01;11.13;;;7.10;;
12112;SDS011;6120;52.250;8.478;2023-08-31T03:00:28;11.55;;;6.97;;
12112;SDS011;6120;52.250;8.478;2023-08-31T03:02:54;12.35;;;7.10;;
12112;SDS011;6120;52.250;8.478;2023-08-31T03:05:21;13.48;;;7.60;;
12112;SDS011;6120;52.250;8.478;2023-08-31T03:07:48;12.73;;;7.10;;
12112;SDS011;6120;52.250;8.478;2023-08-31T03:10:14;11.57;;;7.00;;
12112;SDS011;6120;52.250;8.478;2023-08-31T03:12:41;11.15;;;6.50;;
12112;SDS011;6120;52.250;8.478;2023-08-31T03:15:08;11.07;;;5.78;;
12112;SDS011;6120;52.250;8.478;2023-08-31T03:17:35;8.07;;;5.60;;
12112;SDS011;6120;52.250;8.478;2023-08-31T03:20:01;11.75;;;7.00;;
12112;SDS011;6120;52.250;8.478;2023-08-31T03:22:30;9.75;;;6.82;;
12112;SDS011;6120;52.250;8.478;2023-08-31T03:24:56;9.23;;;5.93;;
12112;SDS011;6120;52.250;8.478;2023-08-31T03:27:23;9.77;;;5.45;;
12112;SDS011;6120;52.250;8.478;2023-08-31T03:29:51;8.38;;;5.07;;
12112;SDS011;6120;52.250;8.478;2023-08-31T03:32:18;9.30;;;6.00;;
12112;SDS011;6120;52.250;8.478;2023-08-31T03:34:45;9.98;;;5.40;;
12112;SDS011;6120;52.250;8.478;2023-08-31T03:37:12;11.32;;;6.07;;
12112;SDS011;6120;52.250;8.478;2023-08-31T03:39:39;9.75;;;5.43;;
12112;SDS011;6120;52.250;8.478;2023-08-31T03:42:07;8.75;;;5.63;;
12112;SDS011;6120;52.250;8.478;2023-08-31T03:44:34;7.63;;;4.90;;
12112;SDS011;6120;52.250;8.478;2023-08-31T03:47:01;10.02;;;5.30;;
12112;SDS011;6120;52.250;8.478;2023-08-31T03:49:28;8.07;;;4.65;;
12112;SDS011;6120;52.250;8.478;2023-08-31T03:51:56;11.47;;;5.60;;
12112;SDS011;6120;52.250;8.478;2023-08-31T03:54:23;9.07;;;5.53;;
12112;SDS011;6120;52.250;8.478;2023-08-31T03:56:49;8.48;;;5.07;;
12112;SDS011;6120;52.250;8.478;2023-08-31T03:59:16;10.60;;;6.72;;
12112;SDS011;6120;52.250;8.478;2023-08-31T04:01:43;8.25;;;5.22;;
12112;SDS011;6120;52.250;8.478;2023-08-31T04:04:09;9.50;;;5.90;;
12112;SDS011;6120;52.250;8.478;2023-08-31T04:06:36;10.30;;;6.03;;
12112;SDS011;6120;52.250;8.478;2023-08-31T04:09:03;9.95;;;6.03;;
12112;SDS011;6120;52.250;8.478;2023-08-31T04:11:30;7.88;;;5.18;;
12112;SDS011;6120;52.250;8.478;2023-08-31T04:13:57;9.05;;;5.75;;
12112;SDS011;6120;52.250;8.478;2023-08-31T04:16:23;9.07;;;5.90;;
12112;SDS011;6120;52.250;8.478;2023-08-31T04:18:50;12.82;;;5.50;;
12112;SDS011;6120;52.250;8.478;2023-08-31T04:21:17;9.93;;;5.50;;
12112;SDS011;6120;52.250;8.478;2023-08-31T04:23:47;8.82;;;5.22;;
12112;SDS011;6120;52.250;8.478;2023-08-31T04:26:14;8.38;;;5.80;;
12112;SDS011;6120;52.250;8.478;2023-08-31T04:28:41;10.80;;;5.75;;
12112;SDS011;6120;52.250;8.478;2023-08-31T04:31:08;15.88;;;8.23;;
12112;SDS011;6120;52.250;8.478;2023-08-31T04:33:36;13.45;;;7.22;;
12112;SDS011;6120;52.250;8.478;2023-08-31T04:36:03;10.00;;;6.32;;
12112;SDS011;6120;52.250;8.478;2023-08-31T04:38:31;11.40;;;7.15;;
12112;SDS011;6120;52.250;8.478;2023-08-31T04:40:58;11.40;;;6.55;;
12112;SDS011;6120;52.250;8.478;2023-08-31T04:43:26;10.48;;;7.20;;
12112;SDS011;6120;52.250;8.478;2023-08-31T04:45:53;11.75;;;7.45;;
12112;SDS011;6120;52.250;8.478;2023-08-31T04:48:20;11.65;;;7.50;;
12112;SDS011;6120;52.250;8.478;2023-08-31T04:50:47;15.85;;;8.40;;
12112;SDS011;6120;52.250;8.478;2023-08-31T04:53:14;13.70;;;8.93;;
12112;SDS011;6120;52.250;8.478;2023-08-31T04:55:41;14.02;;;8.77;;
12112;SDS011;6120;52.250;8.478;2023-08-31T04:58:08;22.33;;;11.07;;
12112;SDS011;6120;52.250;8.478;2023-08-31T05:00:34;18.60;;;10.68;;
12112;SDS011;6120;52.250;8.478;2023-08-31T05:03:01;15.70;;;10.30;;
12112;SDS011;6120;52.250;8.478;2023-08-31T05:05:29;16.98;;;11.60;;
12112;SDS011;6120;52.250;8.478;2023-08-31T05:07:58;19.75;;;11.82;;
12112;SDS011;6120;52.250;8.478;2023-08-31T05:10:25;18.70;;;12.73;;
12112;SDS011;6120;52.250;8.478;2023-08-31T05:12:52;22.00;;;13.35;;
12112;SDS011;6120;52.250;8.478;2023-08-31T05:15:18;23.60;;;14.27;;
12112;SDS011;6120;52.250;8.478;2023-08-31T05:17:46;23.90;;;14.45;;
12112;SDS011;6120;52.250;8.478;2023-08-31T05:20:14;28.00;;;15.77;;
12112;SDS011;6120;52.250;8.478;2023-08-31T05:22:41;30.90;;;17.27;;
12112;SDS011;6120;52.250;8.478;2023-08-31T05:25:08;29.42;;;17.63;;
12112;SDS011;6120;52.250;8.478;2023-08-31T05:27:34;25.50;;;15.65;;
12112;SDS011;6120;52.250;8.478;2023-08-31T05:30:01;25.25;;;16.42;;
12112;SDS011;6120;52.250;8.478;2023-08-31T05:32:28;27.45;;;18.90;;
12112;SDS011;6120;52.250;8.478;2023-08-31T05:34:55;27.55;;;17.30;;
12112;SDS011;6120;52.250;8.478;2023-08-31T05:37:22;30.98;;;19.10;;
12112;SDS011;6120;52.250;8.478;2023-08-31T05:39:49;28.92;;;18.50;;
12112;SDS011;6120;52.250;8.478;2023-08-31T05:42:16;31.38;;;18.73;;
12112;SDS011;6120;52.250;8.478;2023-08-31T05:44:42;25.10;;;16.50;;
12112;SDS011;6120;52.250;8.478;2023-08-31T05:47:09;27.23;;;18.30;;
12112;SDS011;6120;52.250;8.478;2023-08-31T05:49:36;30.58;;;18.65;;
12112;SDS011;6120;52.250;8.478;2023-08-31T05:52:03;30.63;;;17.83;;
12112;SDS011;6120;52.250;8.478;2023-08-31T05:54:29;32.83;;;19.08;;
12112;SDS011;6120;52.250;8.478;2023-08-31T05:56:56;30.30;;;19.73;;
12112;SDS011;6120;52.250;8.478;2023-08-31T05:59:23;27.92;;;18.42;;
12112;SDS011;6120;52.250;8.478;2023-08-31T06:01:49;30.98;;;18.85;;
12112;SDS011;6120;52.250;8.478;2023-08-31T06:04:19;32.45;;;20.75;;
12112;SDS011;6120;52.250;8.478;2023-08-31T06:06:46;33.03;;;21.27;;
12112;SDS011;6120;52.250;8.478;2023-08-31T06:09:13;39.35;;;22.70;;
12112;SDS011;6120;52.250;8.478;2023-08-31T06:11:39;39.85;;;23.65;;
12112;SDS011;6120;52.250;8.478;2023-08-31T06:14:06;38.35;;;22.92;;
12112;SDS011;6120;52.250;8.478;2023-08-31T06:16:33;36.80;;;22.85;;
12112;SDS011;6120;52.250;8.478;2023-08-31T06:19:00;42.50;;;25.88;;
12112;SDS011;6120;52.250;8.478;2023-08-31T06:21:26;39.08;;;24.05;;
12112;SDS011;6120;52.250;8.478;2023-08-31T06:23:53;35.10;;;22.35;;
12112;SDS011;6120;52.250;8.478;2023-08-31T06:26:19;35.00;;;23.73;;
12112;SDS011;6120;52.250;8.478;2023-08-31T06:28:46;35.58;;;24.42;;
12112;SDS011;6120;52.250;8.478;2023-08-31T06:31:13;38.30;;;23.27;;
12112;SDS011;6120;52.250;8.478;2023-08-31T06:33:39;32.88;;;20.98;;
12112;SDS011;6120;52.250;8.478;2023-08-31T06:36:07;34.35;;;23.48;;
12112;SDS011;6120;52.250;8.478;2023-08-31T06:38:33;32.22;;;21.38;;
12112;SDS011;6120;52.250;8.478;2023-08-31T06:41:02;38.05;;;23.88;;
12112;SDS011;6120;52.250;8.478;2023-08-31T06:43:29;34.10;;;22.70;;
12112;SDS011;6120;52.250;8.478;2023-08-31T06:45:56;39.33;;;24.10;;
12112;SDS011;6120;52.250;8.478;2023-08-31T06:48:35;32.63;;;22.20;;
12112;SDS011;6120;52.250;8.478;2023-08-31T06:51:02;39.20;;;23.30;;
12112;SDS011;6120;52.250;8.478;2023-08-31T06:53:30;45.80;;;25.02;;
12112;SDS011;6120;52.250;8.478;2023-08-31T06:55:57;28.80;;;19.50;;
12112;SDS011;6120;52.250;8.478;2023-08-31T06:58:24;36.30;;;22.15;;
12112;SDS011;6120;52.250;8.478;2023-08-31T07:00:50;26.00;;;18.33;;
12112;SDS011;6120;52.250;8.478;2023-08-31T07:03:17;31.25;;;19.20;;
12112;SDS011;6120;52.250;8.478;2023-08-31T07:05:44;30.73;;;18.83;;
12112;SDS011;6120;52.250;8.478;2023-08-31T07:08:11;26.42;;;18.17;;
12112;SDS011;6120;52.250;8.478;2023-08-31T07:10:38;31.55;;;20.20;;
12112;SDS011;6120;52.250;8.478;2023-08-31T07:13:04;29.45;;;19.02;;
12112;SDS011;6120;52.250;8.478;2023-08-31T07:15:31;28.35;;;17.63;;
12112;SDS011;6120;52.250;8.478;2023-08-31T07:17:58;30.90;;;19.10;;
12112;SDS011;6120;52.250;8.478;2023-08-31T07:20:25;29.23;;;18.83;;
12112;SDS011;6120;52.250;8.478;2023-08-31T07:22:52;30.23;;;19.40;;
12112;SDS011;6120;52.250;8.478;2023-08-31T07:25:18;31.48;;;20.67;;
12112;SDS011;6120;52.250;8.478;2023-08-31T07:27:45;28.42;;;18.17;;
12112;SDS011;6120;52.250;8.478;2023-08-31T07:30:13;30.60;;;19.20;;
12112;SDS011;6120;52.250;8.478;2023-08-31T07:32:39;29.30;;;19.13;;
12112;SDS011;6120;52.250;8.478;2023-08-31T07:35:06;31.50;;;20.15;;
12112;SDS011;6120;52.250;8.478;2023-08-31T07:37:33;33.55;;;20.42;;
12112;SDS011;6120;52.250;8.478;2023-08-31T07:40:00;29.88;;;20.10;;
12112;SDS011;6120;52.250;8.478;2023-08-31T07:42:27;27.25;;;18.08;;
12112;SDS011;6120;52.250;8.478;2023-08-31T07:44:54;31.23;;;19.23;;
12112;SDS011;6120;52.250;8.478;2023-08-31T07:47:20;25.70;;;18.30;;
12112;SDS011;6120;52.250;8.478;2023-08-31T07:49:47;31.17;;;19.45;;
12112;SDS011;6120;52.250;8.478;2023-08-31T07:52:14;27.42;;;19.00;;
12112;SDS011;6120;52.250;8.478;2023-08-31T07:54:40;28.45;;;19.55;;
12112;SDS011;6120;52.250;8.478;2023-08-31T07:57:07;29.13;;;18.58;;
12112;SDS011;6120;52.250;8.478;2023-08-31T07:59:34;29.92;;;19.73;;
12112;SDS011;6120;52.250;8.478;2023-08-31T08:02:00;28.13;;;18.38;;
12112;SDS011;6120;52.250;8.478;2023-08-31T08:04:27;25.17;;;18.45;;
12112;SDS011;6120;52.250;8.478;2023-08-31T08:06:56;29.95;;;20.05;;
12112;SDS011;6120;52.250;8.478;2023-08-31T08:09:22;29.92;;;20.05;;
12112;SDS011;6120;52.250;8.478;2023-08-31T08:11:49;27.88;;;18.92;;
12112;SDS011;6120;52.250;8.478;2023-08-31T08:14:17;28.40;;;18.80;;
12112;SDS011;6120;52.250;8.478;2023-08-31T08:16:43;28.65;;;18.77;;
12112;SDS011;6120;52.250;8.478;2023-08-31T08:19:10;32.85;;;19.95;;
12112;SDS011;6120;52.250;8.478;2023-08-31T08:21:37;31.50;;;20.42;;
12112;SDS011;6120;52.250;8.478;2023-08-31T08:24:03;31.23;;;20.23;;
12112;SDS011;6120;52.250;8.478;2023-08-31T08:26:30;27.23;;;19.02;;
12112;SDS011;6120;52.250;8.478;2023-08-31T08:28:57;30.52;;;19.58;;
12112;SDS011;6120;52.250;8.478;2023-08-31T08:31:23;28.40;;;18.88;;
12112;SDS011;6120;52.250;8.478;2023-08-31T08:33:51;31.60;;;19.63;;
12112;SDS011;6120;52.250;8.478;2023-08-31T08:36:17;30.27;;;19.38;;
12112;SDS011;6120;52.250;8.478;2023-08-31T08:38:44;26.88;;;17.10;;
12112;SDS011;6120;52.250;8.478;2023-08-31T08:41:11;32.72;;;19.52;;
12112;SDS011;6120;52.250;8.478;2023-08-31T08:43:39;25.50;;;17.00;;
12112;SDS011;6120;52.250;8.478;2023-08-31T08:46:10;28.85;;;18.20;;
12112;SDS011;6120;52.250;8.478;2023-08-31T08:48:36;22.00;;;15.45;;
12112;SDS011;6120;52.250;8.478;2023-08-31T08:51:04;25.00;;;16.63;;
12112;SDS011;6120;52.250;8.478;2023-08-31T08:53:31;26.40;;;16.25;;
12112;SDS011;6120;52.250;8.478;2023-08-31T08:55:58;22.80;;;14.88;;
12112;SDS011;6120;52.250;8.478;2023-08-31T08:58:24;21.58;;;14.68;;
12112;SDS011;6120;52.250;8.478;2023-08-31T09:00:51;22.95;;;15.27;;
12112;SDS011;6120;52.250;8.478;2023-08-31T09:03:19;19.92;;;12.88;;
12112;SDS011;6120;52.250;8.478;2023-08-31T09:05:45;25.52;;;15.77;;
12112;SDS011;6120;52.250;8.478;2023-08-31T09:08:12;21.38;;;13.82;;
12112;SDS011;6120;52.250;8.478;2023-08-31T09:10:40;20.63;;;13.60;;
12112;SDS011;6120;52.250;8.478;2023-08-31T09:13:14;22.45;;;13.75;;
12112;SDS011;6120;52.250;8.478;2023-08-31T09:15:45;21.80;;;13.68;;
12112;SDS011;6120;52.250;8.478;2023-08-31T09:21:01;16.95;;;11.57;;
12112;SDS011;6120;52.250;8.478;2023-08-31T09:23:28;17.20;;;10.57;;
12112;SDS011;6120;52.250;8.478;2023-08-31T09:25:55;16.67;;;9.93;;
12112;SDS011;6120;52.250;8.478;2023-08-31T09:28:23;18.37;;;9.80;;
12112;SDS011;6120;52.250;8.478;2023-08-31T09:30:53;15.45;;;9.20;;
12112;SDS011;6120;52.250;8.478;2023-08-31T09:33:31;14.35;;;10.40;;
12112;SDS011;6120;52.250;8.478;2023-08-31T09:35:59;15.00;;;9.52;;
12112;SDS011;6120;52.250;8.478;2023-08-31T09:38:30;15.05;;;9.52;;
12112;SDS011;6120;52.250;8.478;2023-08-31T09:41:05;15.02;;;8.73;;
12112;SDS011;6120;52.250;8.478;2023-08-31T09:43:33;15.50;;;8.63;;
12112;SDS011;6120;52.250;8.478;2023-08-31T09:46:00;10.77;;;7.45;;
12112;SDS011;6120;52.250;8.478;2023-08-31T09:48:29;11.45;;;7.30;;
12112;SDS011;6120;52.250;8.478;2023-08-31T09:50:56;12.32;;;6.68;;
12112;SDS011;6120;52.250;8.478;2023-08-31T09:53:23;11.23;;;7.30;;
12112;SDS011;6120;52.250;8.478;2023-08-31T09:55:54;10.85;;;6.75;;
12112;SDS011;6120;52.250;8.478;2023-08-31T09:58:22;12.48;;;6.53;;
12112;SDS011;6120;52.250;8.478;2023-08-31T10:00:50;11.23;;;6.35;;
12112;SDS011;6120;52.250;8.478;2023-08-31T10:03:17;8.80;;;5.30;;
12112;SDS011;6120;52.250;8.478;2023-08-31T10:05:48;8.80;;;5.38;;
12112;SDS011;6120;52.250;8.478;2023-08-31T10:08:16;10.15;;;5.88;;
12112;SDS011;6120;52.250;8.478;2023-08-31T10:10:44;8.98;;;5.05;;
12112;SDS011;6120;52.250;8.478;2023-08-31T10:13:12;8.88;;;5.18;;
12112;SDS011;6120;52.250;8.478;2023-08-31T10:18:08;10.10;;;5.82;;
12112;SDS011;6120;52.250;8.478;2023-08-31T10:20:34;7.25;;;5.00;;
12112;SDS011;6120;52.250;8.478;2023-08-31T10:23:05;7.38;;;4.85;;
12112;SDS011;6120;52.250;8.478;2023-08-31T10:28:24;8.00;;;4.68;;
12112;SDS011;6120;52.250;8.478;2023-08-31T10:33:39;6.10;;;3.75;;
12112;SDS011;6120;52.250;8.478;2023-08-31T10:41:25;8.65;;;2.83;;
12112;SDS011;6120;52.250;8.478;2023-08-31T10:43:53;5.05;;;2.78;;
12112;SDS011;6120;52.250;8.478;2023-08-31T10:46:32;6.38;;;3.00;;
12112;SDS011;6120;52.250;8.478;2023-08-31T10:49:02;4.68;;;2.70;;
12112;SDS011;6120;52.250;8.478;2023-08-31T10:51:41;5.32;;;2.70;;
12112;SDS011;6120;52.250;8.478;2023-08-31T10:54:10;3.58;;;2.17;;
12112;SDS011;6120;52.250;8.478;2023-08-31T10:56:54;6.95;;;2.65;;
12112;SDS011;6120;52.250;8.478;2023-08-31T10:59:44;5.43;;;2.40;;
12112;SDS011;6120;52.250;8.478;2023-08-31T11:02:26;3.58;;;2.25;;
12112;SDS011;6120;52.250;8.478;2023-08-31T11:10:15;6.10;;;2.47;;
12112;SDS011;6120;52.250;8.478;2023-08-31T11:12:44;4.45;;;2.60;;
12112;SDS011;6120;52.250;8.478;2023-08-31T11:15:12;3.45;;;2.08;;
12112;SDS011;6120;52.250;8.478;2023-08-31T11:17:41;3.58;;;2.10;;
12112;SDS011;6120;52.250;8.478;2023-08-31T11:20:09;5.28;;;2.20;;
12112;SDS011;6120;52.250;8.478;2023-08-31T11:22:40;3.83;;;2.08;;
12112;SDS011;6120;52.250;8.478;2023-08-31T11:25:11;4.65;;;1.88;;
12112;SDS011;6120;52.250;8.478;2023-08-31T11:27:39;5.82;;;2.72;;
12112;SDS011;6120;52.250;8.478;2023-08-31T11:30:14;5.57;;;1.70;;
12112;SDS011;6120;52.250;8.478;2023-08-31T11:32:48;3.67;;;1.88;;
12112;SDS011;6120;52.250;8.478;2023-08-31T11:35:17;2.22;;;1.20;;
12112;SDS011;6120;52.250;8.478;2023-08-31T11:37:44;4.87;;;1.00;;
12112;SDS011;6120;52.250;8.478;2023-08-31T11:40:12;2.15;;;1.10;;
12112;SDS011;6120;52.250;8.478;2023-08-31T11:42:41;5.57;;;1.27;;
12112;SDS011;6120;52.250;8.478;2023-08-31T11:45:08;5.38;;;1.90;;
12112;SDS011;6120;52.250;8.478;2023-08-31T11:47:36;4.20;;;1.20;;
12112;SDS011;6120;52.250;8.478;2023-08-31T11:50:03;3.15;;;1.17;;
12112;SDS011;6120;52.250;8.478;2023-08-31T11:52:30;9.55;;;1.45;;
12112;SDS011;6120;52.250;8.478;2023-08-31T11:54:57;2.80;;;1.20;;
12112;SDS011;6120;52.250;8.478;2023-08-31T11:57:25;2.55;;;1.10;;
12112;SDS011;6120;52.250;8.478;2023-08-31T11:59:52;5.28;;;1.15;;
12112;SDS011;6120;52.250;8.478;2023-08-31T12:02:19;3.58;;;1.30;;
12112;SDS011;6120;52.250;8.478;2023-08-31T12:04:46;4.03;;;1.30;;
12112;SDS011;6120;52.250;8.478;2023-08-31T12:07:16;4.30;;;1.20;;
12112;SDS011;6120;52.250;8.478;2023-08-31T12:09:47;3.95;;;0.93;;
12112;SDS011;6120;52.250;8.478;2023-08-31T12:12:14;3.88;;;1.10;;
12112;SDS011;6120;52.250;8.478;2023-08-31T12:14:43;3.65;;;0.95;;
12112;SDS011;6120;52.250;8.478;2023-08-31T12:17:09;3.55;;;1.45;;
12112;SDS011;6120;52.250;8.478;2023-08-31T12:19:40;4.40;;;1.20;;
12112;SDS011;6120;52.250;8.478;2023-08-31T12:22:06;5.13;;;1.20;;
12112;SDS011;6120;52.250;8.478;2023-08-31T12:24:40;3.80;;;1.27;;
12112;SDS011;6120;52.250;8.478;2023-08-31T12:27:07;4.97;;;1.77;;
12112;SDS011;6120;52.250;8.478;2023-08-31T12:29:34;2.17;;;1.15;;
12112;SDS011;6120;52.250;8.478;2023-08-31T12:32:02;2.45;;;1.33;;
12112;SDS011;6120;52.250;8.478;2023-08-31T12:34:29;4.85;;;1.55;;
12112;SDS011;6120;52.250;8.478;2023-08-31T12:37:00;3.42;;;1.92;;
12112;SDS011;6120;52.250;8.478;2023-08-31T12:39:29;4.03;;;2.33;;
12112;SDS011;6120;52.250;8.478;2023-08-31T12:41:55;3.50;;;1.70;;
12112;SDS011;6120;52.250;8.478;2023-08-31T12:44:42;3.50;;;2.08;;
12112;SDS011;6120;52.250;8.478;2023-08-31T12:47:08;3.17;;;1.67;;
12112;SDS011;6120;52.250;8.478;2023-08-31T12:49:35;8.05;;;2.05;;
12112;SDS011;6120;52.250;8.478;2023-08-31T12:52:02;5.70;;;2.58;;
12112;SDS011;6120;52.250;8.478;2023-08-31T12:54:29;4.43;;;2.33;;
12112;SDS011;6120;52.250;8.478;2023-08-31T12:56:55;5.72;;;2.65;;
12112;SDS011;6120;52.250;8.478;2023-08-31T12:59:22;9.52;;;2.72;;
12112;SDS011;6120;52.250;8.478;2023-08-31T13:01:49;4.88;;;2.30;;
12112;SDS011;6120;52.250;8.478;2023-08-31T13:04:16;5.32;;;2.47;;
12112;SDS011;6120;52.250;8.478;2023-08-31T13:06:43;7.60;;;2.47;;
12112;SDS011;6120;52.250;8.478;2023-08-31T13:09:09;4.53;;;2.20;;
12112;SDS011;6120;52.250;8.478;2023-08-31T13:11:36;4.50;;;2.58;;
12112;SDS011;6120;52.250;8.478;2023-08-31T13:14:03;8.10;;;2.92;;
12112;SDS011;6120;52.250;8.478;2023-08-31T13:16:31;10.23;;;3.50;;
12112;SDS011;6120;52.250;8.478;2023-08-31T13:18:58;9.03;;;3.33;;
12112;SDS011;6120;52.250;8.478;2023-08-31T13:21:26;6.77;;;2.60;;
12112;SDS011;6120;52.250;8.478;2023-08-31T13:23:52;5.35;;;2.30;;
12112;SDS011;6120;52.250;8.478;2023-08-31T13:26:19;4.60;;;1.30;;
12112;SDS011;6120;52.250;8.478;2023-08-31T13:28:46;5.70;;;1.42;;
12112;SDS011;6120;52.250;8.478;2023-08-31T13:31:12;4.10;;;1.30;;
12112;SDS011;6120;52.250;8.478;2023-08-31T13:33:39;3.50;;;1.10;;
12112;SDS011;6120;52.250;8.478;2023-08-31T13:36:06;8.30;;;1.80;;
12112;SDS011;6120;52.250;8.478;2023-08-31T13:38:32;3.72;;;1.33;;
12112;SDS011;6120;52.250;8.478;2023-08-31T13:40:59;3.13;;;1.60;;
12112;SDS011;6120;52.250;8.478;2023-08-31T13:43:26;3.80;;;1.98;;
12112;SDS011;6120;52.250;8.478;2023-08-31T13:45:52;7.20;;;1.90;;
12112;SDS011;6120;52.250;8.478;2023-08-31T13:48:19;4.88;;;2.38;;
12112;SDS011;6120;52.250;8.478;2023-08-31T13:50:48;5.75;;;2.15;;
12112;SDS011;6120;52.250;8.478;2023-08-31T13:53:16;6.32;;;2.70;;
12112;SDS011;6120;52.250;8.478;2023-08-31T13:55:42;6.93;;;2.67;;
12112;SDS011;6120;52.250;8.478;2023-08-31T13:58:09;4.97;;;2.13;;
12112;SDS011;6120;52.250;8.478;2023-08-31T14:00:36;5.90;;;2.10;;
12112;SDS011;6120;52.250;8.478;2023-08-31T14:03:04;3.20;;;1.85;;
12112;SDS011;6120;52.250;8.478;2023-08-31T14:05:31;6.07;;;2.40;;
12112;SDS011;6120;52.250;8.478;2023-08-31T14:07:59;4.97;;;1.63;;
12112;SDS011;6120;52.250;8.478;2023-08-31T14:10:27;4.07;;;1.50;;
12112;SDS011;6120;52.250;8.478;2023-08-31T14:12:54;5.00;;;1.10;;
12112;SDS011;6120;52.250;8.478;2023-08-31T14:15:21;4.22;;;1.10;;
12112;SDS011;6120;52.250;8.478;2023-08-31T14:17:50;1.92;;;0.80;;
12112;SDS011;6120;52.250;8.478;2023-08-31T14:20:17;2.30;;;0.82;;
12112;SDS011;6120;52.250;8.478;2023-08-31T14:22:43;3.42;;;1.10;;
12112;SDS011;6120;52.250;8.478;2023-08-31T14:25:11;10.55;;;1.63;;
12112;SDS011;6120;52.250;8.478;2023-08-31T14:27:38;4.60;;;1.00;;
12112;SDS011;6120;52.250;8.478;2023-08-31T14:30:05;4.43;;;1.10;;
12112;SDS011;6120;52.250;8.478;2023-08-31T14:32:32;3.63;;;1.23;;
12112;SDS011;6120;52.250;8.478;2023-08-31T14:34:59;3.08;;;1.10;;
12112;SDS011;6120;52.250;8.478;2023-08-31T14:37:26;2.55;;;0.93;;
12112;SDS011;6120;52.250;8.478;2023-08-31T14:39:53;2.33;;;0.85;;
12112;SDS011;6120;52.250;8.478;2023-08-31T14:42:20;3.22;;;1.10;;
12112;SDS011;6120;52.250;8.478;2023-08-31T14:44:47;6.95;;;1.35;;
12112;SDS011;6120;52.250;8.478;2023-08-31T14:47:15;6.32;;;1.02;;
12112;SDS011;6120;52.250;8.478;2023-08-31T14:49:43;4.60;;;1.10;;
12112;SDS011;6120;52.250;8.478;2023-08-31T14:52:09;2.45;;;0.85;;
12112;SDS011;6120;52.250;8.478;2023-08-31T14:54:36;2.35;;;1.60;;
12112;SDS011;6120;52.250;8.478;2023-08-31T14:57:03;1.35;;;0.65;;
12112;SDS011;6120;52.250;8.478;2023-08-31T14:59:30;2.55;;;0.80;;
12112;SDS011;6120;52.250;8.478;2023-08-31T15:01:56;3.45;;;0.80;;
12112;SDS011;6120;52.250;8.478;2023-08-31T15:04:23;2.53;;;0.70;;
12112;SDS011;6120;52.250;8.478;2023-08-31T15:06:50;1.45;;;0.43;;
12112;SDS011;6120;52.250;8.478;2023-08-31T15:09:16;1.42;;;0.75;;
12112;SDS011;6120;52.250;8.478;2023-08-31T15:11:43;2.25;;;0.52;;
12112;SDS011;6120;52.250;8.478;2023-08-31T15:14:11;1.70;;;0.60;;
12112;SDS011;6120;52.250;8.478;2023-08-31T15:16:38;2.35;;;0.75;;
12112;SDS011;6120;52.250;8.478;2023-08-31T15:19:04;2.17;;;0.60;;
12112;SDS011;6120;52.250;8.478;2023-08-31T15:21:31;2.38;;;0.68;;
12112;SDS011;6120;52.250;8.478;2023-08-31T15:23:58;1.55;;;0.60;;